sensor_id;sensor_type;location;lat;lon;timestamp;temperature;humidity
29775;DHT22;16676;51.202;6.774;2024-02-14T00:01:10;19.10;71.60
29775;DHT22;16676;51.202;6.774;2024-02-14T00:05:13;19.00;71.20
29775;DHT22;16676;51.202;6.774;2024-02-14T00:09:15;19.00;71.20
29775;DHT22;16676;51.202;6.774;2024-02-14T00:13:17;19.00;71.50
29775;DHT22;16676;51.202;6.774;2024-02-14T00:17:19;19.00;71.00
29775;DHT22;16676;51.202;6.774;2024-02-14T00:21:23;19.00;71.60
29775;DHT22;16676;51.202;6.774;2024-02-14T00:25:25;19.00;71.60
29775;DHT22;16676;51.202;6.774;2024-02-14T00:29:27;19.00;71.30
29775;DHT22;16676;51.202;6.774;2024-02-14T00:33:29;19.00;71.70
29775;DHT22;16676;51.202;6.774;2024-02-14T00:37:32;19.00;71.40
29775;DHT22;16676;51.202;6.774;2024-02-14T00:41:35;19.00;71.60
29775;DHT22;16676;51.202;6.774;2024-02-14T00:45:36;19.00;71.60
29775;DHT22;16676;51.202;6.774;2024-02-14T00:49:39;19.00;71.70
29775;DHT22;16676;51.202;6.774;2024-02-14T00:53:43;19.00;71.90
29775;DHT22;16676;51.202;6.774;2024-02-14T00:57:45;18.90;71.80
29775;DHT22;16676;51.202;6.774;2024-02-14T01:01:46;18.90;71.70
29775;DHT22;16676;51.202;6.774;2024-02-14T01:05:48;18.90;71.60
29775;DHT22;16676;51.202;6.774;2024-02-14T01:09:51;18.90;71.80
29775;DHT22;16676;51.202;6.774;2024-02-14T01:13:53;18.90;72.00
29775;DHT22;16676;51.202;6.774;2024-02-14T01:17:55;18.90;71.70
29775;DHT22;16676;51.202;6.774;2024-02-14T01:21:57;18.90;71.90
29775;DHT22;16676;51.202;6.774;2024-02-14T01:26:00;18.90;72.10
29775;DHT22;16676;51.202;6.774;2024-02-14T01:30:03;18.90;71.70
29775;DHT22;16676;51.202;6.774;2024-02-14T01:34:06;18.90;71.70
29775;DHT22;16676;51.202;6.774;2024-02-14T01:38:07;18.90;72.10
29775;DHT22;16676;51.202;6.774;2024-02-14T01:42:11;18.90;72.30
29775;DHT22;16676;51.202;6.774;2024-02-14T01:46:13;18.90;72.00
29775;DHT22;16676;51.202;6.774;2024-02-14T01:50:15;18.80;71.80
29775;DHT22;16676;51.202;6.774;2024-02-14T01:54:19;18.90;72.10
29775;DHT22;16676;51.202;6.774;2024-02-14T01:58:22;18.90;72.00
29775;DHT22;16676;51.202;6.774;2024-02-14T02:02:25;18.80;72.00
29775;DHT22;16676;51.202;6.774;2024-02-14T02:06:28;18.80;72.10
29775;DHT22;16676;51.202;6.774;2024-02-14T02:10:31;18.80;72.10
29775;DHT22;16676;51.202;6.774;2024-02-14T02:14:34;18.90;72.30
29775;DHT22;16676;51.202;6.774;2024-02-14T02:18:36;18.80;71.80
29775;DHT22;16676;51.202;6.774;2024-02-14T02:22:45;18.80;72.20
29775;DHT22;16676;51.202;6.774;2024-02-14T02:26:47;18.80;72.10
29775;DHT22;16676;51.202;6.774;2024-02-14T02:30:49;18.80;72.20
29775;DHT22;16676;51.202;6.774;2024-02-14T02:34:54;18.80;71.80
29775;DHT22;16676;51.202;6.774;2024-02-14T02:38:58;18.80;72.30
29775;DHT22;16676;51.202;6.774;2024-02-14T02:43:01;18.80;72.60
29775;DHT22;16676;51.202;6.774;2024-02-14T02:47:03;18.70;72.20
29775;DHT22;16676;51.202;6.774;2024-02-14T02:51:05;18.70;72.00
29775;DHT22;16676;51.202;6.774;2024-02-14T02:55:09;18.70;72.10
29775;DHT22;16676;51.202;6.774;2024-02-14T02:59:11;18.70;72.20
29775;DHT22;16676;51.202;6.774;2024-02-14T03:03:14;18.70;72.90
29775;DHT22;16676;51.202;6.774;2024-02-14T03:07:16;18.70;72.60
29775;DHT22;16676;51.202;6.774;2024-02-14T03:11:22;18.70;72.50
29775;DHT22;16676;51.202;6.774;2024-02-14T03:15:23;18.70;72.50
29775;DHT22;16676;51.202;6.774;2024-02-14T03:19:26;18.70;72.50
29775;DHT22;16676;51.202;6.774;2024-02-14T03:23:28;18.70;73.20
29775;DHT22;16676;51.202;6.774;2024-02-14T03:27:31;18.70;72.50
29775;DHT22;16676;51.202;6.774;2024-02-14T03:31:35;18.70;72.90
29775;DHT22;16676;51.202;6.774;2024-02-14T03:35:37;18.70;72.70
29775;DHT22;16676;51.202;6.774;2024-02-14T03:39:39;18.70;72.60
29775;DHT22;16676;51.202;6.774;2024-02-14T03:43:42;18.70;72.70
29775;DHT22;16676;51.202;6.774;2024-02-14T03:47:44;18.70;72.80
29775;DHT22;16676;51.202;6.774;2024-02-14T03:51:46;18.60;72.70
29775;DHT22;16676;51.202;6.774;2024-02-14T03:55:50;18.70;72.70
29775;DHT22;16676;51.202;6.774;2024-02-14T03:59:57;18.70;72.50
29775;DHT22;16676;51.202;6.774;2024-02-14T04:03:59;18.60;72.70
29775;DHT22;16676;51.202;6.774;2024-02-14T04:08:01;18.60;72.80
29775;DHT22;16676;51.202;6.774;2024-02-14T04:12:04;18.60;72.90
29775;DHT22;16676;51.202;6.774;2024-02-14T04:16:07;18.60;72.80
29775;DHT22;16676;51.202;6.774;2024-02-14T04:20:10;18.60;72.70
29775;DHT22;16676;51.202;6.774;2024-02-14T04:24:12;18.70;72.80
29775;DHT22;16676;51.202;6.774;2024-02-14T04:28:14;18.60;73.50
29775;DHT22;16676;51.202;6.774;2024-02-14T04:32:17;18.60;73.10
29775;DHT22;16676;51.202;6.774;2024-02-14T04:36:20;18.60;73.20
29775;DHT22;16676;51.202;6.774;2024-02-14T04:40:23;18.60;73.40
29775;DHT22;16676;51.202;6.774;2024-02-14T04:44:25;18.60;73.70
29775;DHT22;16676;51.202;6.774;2024-02-14T04:48:28;18.60;73.50
29775;DHT22;16676;51.202;6.774;2024-02-14T04:52:30;18.60;73.90
29775;DHT22;16676;51.202;6.774;2024-02-14T04:56:32;18.80;73.70
29775;DHT22;16676;51.202;6.774;2024-02-14T05:00:34;19.00;73.80
29775;DHT22;16676;51.202;6.774;2024-02-14T05:04:37;19.20;73.70
29775;DHT22;16676;51.202;6.774;2024-02-14T05:08:39;19.30;73.20
29775;DHT22;16676;51.202;6.774;2024-02-14T05:12:41;19.40;73.10
29775;DHT22;16676;51.202;6.774;2024-02-14T05:16:43;19.50;72.80
29775;DHT22;16676;51.202;6.774;2024-02-14T05:20:47;19.60;72.50
29775;DHT22;16676;51.202;6.774;2024-02-14T05:24:48;19.60;72.20
29775;DHT22;16676;51.202;6.774;2024-02-14T05:28:50;19.70;72.10
29775;DHT22;16676;51.202;6.774;2024-02-14T05:32:52;19.70;72.00
29775;DHT22;16676;51.202;6.774;2024-02-14T05:36:55;19.70;72.10
29775;DHT22;16676;51.202;6.774;2024-02-14T05:40:57;19.80;71.80
29775;DHT22;16676;51.202;6.774;2024-02-14T05:44:59;19.80;71.80
29775;DHT22;16676;51.202;6.774;2024-02-14T05:49:04;19.80;72.00
29775;DHT22;16676;51.202;6.774;2024-02-14T05:53:08;19.80;72.00
29775;DHT22;16676;51.202;6.774;2024-02-14T05:57:10;19.80;72.00
29775;DHT22;16676;51.202;6.774;2024-02-14T06:01:12;19.80;72.10
29775;DHT22;16676;51.202;6.774;2024-02-14T06:05:14;19.80;72.40
29775;DHT22;16676;51.202;6.774;2024-02-14T06:09:17;19.80;72.20
29775;DHT22;16676;51.202;6.774;2024-02-14T06:13:19;19.90;72.30
29775;DHT22;16676;51.202;6.774;2024-02-14T06:17:21;19.90;72.20
29775;DHT22;16676;51.202;6.774;2024-02-14T06:21:23;19.80;71.90
29775;DHT22;16676;51.202;6.774;2024-02-14T06:25:27;19.80;72.00
29775;DHT22;16676;51.202;6.774;2024-02-14T06:29:29;19.80;72.40
29775;DHT22;16676;51.202;6.774;2024-02-14T06:33:31;19.80;72.50
29775;DHT22;16676;51.202;6.774;2024-02-14T06:37:33;19.80;72.10
29775;DHT22;16676;51.202;6.774;2024-02-14T06:41:36;19.80;72.10
29775;DHT22;16676;51.202;6.774;2024-02-14T06:45:38;19.70;73.40
29775;DHT22;16676;51.202;6.774;2024-02-14T06:49:40;19.80;72.20
29775;DHT22;16676;51.202;6.774;2024-02-14T06:53:42;19.80;71.90
29775;DHT22;16676;51.202;6.774;2024-02-14T06:57:45;19.70;71.50
29775;DHT22;16676;51.202;6.774;2024-02-14T07:01:47;19.70;72.00
29775;DHT22;16676;51.202;6.774;2024-02-14T07:05:49;19.20;64.90
29775;DHT22;16676;51.202;6.774;2024-02-14T07:09:51;18.40;65.70
29775;DHT22;16676;51.202;6.774;2024-02-14T07:13:55;17.90;67.40
29775;DHT22;16676;51.202;6.774;2024-02-14T07:17:58;18.00;68.60
29775;DHT22;16676;51.202;6.774;2024-02-14T07:22:00;18.30;69.50
29775;DHT22;16676;51.202;6.774;2024-02-14T07:26:01;18.60;68.60
29775;DHT22;16676;51.202;6.774;2024-02-14T07:30:06;18.70;68.40
29775;DHT22;16676;51.202;6.774;2024-02-14T07:34:07;18.90;68.40
29775;DHT22;16676;51.202;6.774;2024-02-14T07:38:09;18.90;68.50
29775;DHT22;16676;51.202;6.774;2024-02-14T07:42:11;19.00;68.70
29775;DHT22;16676;51.202;6.774;2024-02-14T07:46:18;19.00;68.50
29775;DHT22;16676;51.202;6.774;2024-02-14T07:50:20;19.00;68.90
29775;DHT22;16676;51.202;6.774;2024-02-14T07:54:22;19.00;69.00
29775;DHT22;16676;51.202;6.774;2024-02-14T07:58:23;19.10;69.40
29775;DHT22;16676;51.202;6.774;2024-02-14T08:02:27;19.10;69.10
29775;DHT22;16676;51.202;6.774;2024-02-14T08:06:30;19.10;69.30
29775;DHT22;16676;51.202;6.774;2024-02-14T08:10:31;19.10;69.30
29775;DHT22;16676;51.202;6.774;2024-02-14T08:14:34;19.10;69.40
29775;DHT22;16676;51.202;6.774;2024-02-14T08:18:37;19.10;69.30
29775;DHT22;16676;51.202;6.774;2024-02-14T08:22:40;19.10;69.50
29775;DHT22;16676;51.202;6.774;2024-02-14T08:26:42;19.10;69.40
29775;DHT22;16676;51.202;6.774;2024-02-14T08:30:44;19.10;69.50
29775;DHT22;16676;51.202;6.774;2024-02-14T08:34:47;19.00;69.30
29775;DHT22;16676;51.202;6.774;2024-02-14T08:38:50;18.90;69.90
29775;DHT22;16676;51.202;6.774;2024-02-14T08:42:52;18.90;70.20
29775;DHT22;16676;51.202;6.774;2024-02-14T08:46:54;18.90;70.30
29775;DHT22;16676;51.202;6.774;2024-02-14T08:50:58;18.80;71.40
29775;DHT22;16676;51.202;6.774;2024-02-14T08:55:01;18.80;70.80
29775;DHT22;16676;51.202;6.774;2024-02-14T08:59:03;18.80;70.70
29775;DHT22;16676;51.202;6.774;2024-02-14T09:03:07;18.80;70.50
29775;DHT22;16676;51.202;6.774;2024-02-14T09:07:11;18.80;70.70
29775;DHT22;16676;51.202;6.774;2024-02-14T09:11:14;18.90;70.50
29775;DHT22;16676;51.202;6.774;2024-02-14T09:15:16;18.80;70.40
29775;DHT22;16676;51.202;6.774;2024-02-14T09:19:17;18.90;70.70
29775;DHT22;16676;51.202;6.774;2024-02-14T09:23:21;18.90;70.40
29775;DHT22;16676;51.202;6.774;2024-02-14T09:27:23;18.90;70.50
29775;DHT22;16676;51.202;6.774;2024-02-14T09:31:25;18.90;70.70
29775;DHT22;16676;51.202;6.774;2024-02-14T09:35:27;18.90;71.40
29775;DHT22;16676;51.202;6.774;2024-02-14T09:39:30;18.90;71.00
29775;DHT22;16676;51.202;6.774;2024-02-14T09:43:36;18.90;70.50
29775;DHT22;16676;51.202;6.774;2024-02-14T09:47:40;18.90;70.60
29775;DHT22;16676;51.202;6.774;2024-02-14T09:51:44;18.90;70.60
29775;DHT22;16676;51.202;6.774;2024-02-14T09:55:48;18.90;71.10
29775;DHT22;16676;51.202;6.774;2024-02-14T09:59:50;18.90;70.90
29775;DHT22;16676;51.202;6.774;2024-02-14T10:03:53;18.90;70.80
29775;DHT22;16676;51.202;6.774;2024-02-14T10:07:57;18.90;70.90
29775;DHT22;16676;51.202;6.774;2024-02-14T10:12:00;18.90;70.50
29775;DHT22;16676;51.202;6.774;2024-02-14T10:16:03;18.80;70.80
29775;DHT22;16676;51.202;6.774;2024-02-14T10:20:05;18.90;71.00
29775;DHT22;16676;51.202;6.774;2024-02-14T10:24:08;18.90;70.80
29775;DHT22;16676;51.202;6.774;2024-02-14T10:28:12;18.90;71.50
29775;DHT22;16676;51.202;6.774;2024-02-14T10:32:15;18.90;71.10
29775;DHT22;16676;51.202;6.774;2024-02-14T10:36:17;18.80;71.50
29775;DHT22;16676;51.202;6.774;2024-02-14T10:40:21;18.80;71.30
29775;DHT22;16676;51.202;6.774;2024-02-14T10:44:24;18.90;71.40
29775;DHT22;16676;51.202;6.774;2024-02-14T10:48:28;18.90;71.10
29775;DHT22;16676;51.202;6.774;2024-02-14T10:52:36;18.90;71.60
29775;DHT22;16676;51.202;6.774;2024-02-14T10:56:39;18.90;71.20
29775;DHT22;16676;51.202;6.774;2024-02-14T11:00:43;18.80;71.30
29775;DHT22;16676;51.202;6.774;2024-02-14T11:04:46;18.80;71.90
29775;DHT22;16676;51.202;6.774;2024-02-14T11:08:56;18.80;71.90
29775;DHT22;16676;51.202;6.774;2024-02-14T11:12:58;18.80;71.80
29775;DHT22;16676;51.202;6.774;2024-02-14T11:17:03;18.70;72.10
29775;DHT22;16676;51.202;6.774;2024-02-14T11:21:15;18.80;71.90
29775;DHT22;16676;51.202;6.774;2024-02-14T11:25:17;18.80;72.10
29775;DHT22;16676;51.202;6.774;2024-02-14T11:29:21;18.70;71.80
29775;DHT22;16676;51.202;6.774;2024-02-14T11:33:24;18.70;72.20
29775;DHT22;16676;51.202;6.774;2024-02-14T11:37:30;18.70;71.90
29775;DHT22;16676;51.202;6.774;2024-02-14T11:41:33;18.70;71.90
29775;DHT22;16676;51.202;6.774;2024-02-14T11:45:35;18.70;71.80
29775;DHT22;16676;51.202;6.774;2024-02-14T11:49:41;18.80;71.90
29775;DHT22;16676;51.202;6.774;2024-02-14T11:53:43;18.80;72.10
29775;DHT22;16676;51.202;6.774;2024-02-14T11:57:45;18.80;71.90
29775;DHT22;16676;51.202;6.774;2024-02-14T12:01:49;18.70;71.90
29775;DHT22;16676;51.202;6.774;2024-02-14T12:05:53;18.70;72.30
29775;DHT22;16676;51.202;6.774;2024-02-14T12:09:57;18.70;72.20
29775;DHT22;16676;51.202;6.774;2024-02-14T12:14:01;18.70;71.90
29775;DHT22;16676;51.202;6.774;2024-02-14T12:18:04;18.80;72.10
29775;DHT22;16676;51.202;6.774;2024-02-14T12:22:10;18.80;72.10
29775;DHT22;16676;51.202;6.774;2024-02-14T12:26:18;18.70;72.00
29775;DHT22;16676;51.202;6.774;2024-02-14T12:30:20;18.80;72.10
29775;DHT22;16676;51.202;6.774;2024-02-14T12:34:22;18.80;72.20
29775;DHT22;16676;51.202;6.774;2024-02-14T12:38:25;18.80;72.00
29775;DHT22;16676;51.202;6.774;2024-02-14T12:42:27;18.80;72.30
29775;DHT22;16676;51.202;6.774;2024-02-14T12:46:29;18.80;72.40
29775;DHT22;16676;51.202;6.774;2024-02-14T12:50:31;18.80;71.90
29775;DHT22;16676;51.202;6.774;2024-02-14T12:54:35;18.80;71.90
29775;DHT22;16676;51.202;6.774;2024-02-14T12:58:37;18.80;72.10
29775;DHT22;16676;51.202;6.774;2024-02-14T13:02:38;18.70;72.10
29775;DHT22;16676;51.202;6.774;2024-02-14T13:06:40;18.80;72.20
29775;DHT22;16676;51.202;6.774;2024-02-14T13:10:44;18.80;72.00
29775;DHT22;16676;51.202;6.774;2024-02-14T13:14:46;18.70;72.10
29775;DHT22;16676;51.202;6.774;2024-02-14T13:18:47;18.70;72.00
29775;DHT22;16676;51.202;6.774;2024-02-14T13:22:49;18.70;72.20
29775;DHT22;16676;51.202;6.774;2024-02-14T13:26:53;18.70;72.30
29775;DHT22;16676;51.202;6.774;2024-02-14T13:30:58;18.70;72.10
29775;DHT22;16676;51.202;6.774;2024-02-14T13:35:00;18.70;72.20
29775;DHT22;16676;51.202;6.774;2024-02-14T13:39:02;18.80;72.40
29775;DHT22;16676;51.202;6.774;2024-02-14T13:43:05;18.70;72.20
29775;DHT22;16676;51.202;6.774;2024-02-14T13:47:08;18.70;72.50
29775;DHT22;16676;51.202;6.774;2024-02-14T13:51:10;18.70;72.20
29775;DHT22;16676;51.202;6.774;2024-02-14T13:55:12;18.70;72.30
29775;DHT22;16676;51.202;6.774;2024-02-14T13:59:15;18.70;72.40
29775;DHT22;16676;51.202;6.774;2024-02-14T14:03:18;18.70;72.50
29775;DHT22;16676;51.202;6.774;2024-02-14T14:07:20;18.70;72.20
29775;DHT22;16676;51.202;6.774;2024-02-14T14:11:23;18.70;72.50
29775;DHT22;16676;51.202;6.774;2024-02-14T14:15:26;18.70;72.40
29775;DHT22;16676;51.202;6.774;2024-02-14T14:19:29;18.70;72.50
29775;DHT22;16676;51.202;6.774;2024-02-14T14:23:31;18.70;72.40
29775;DHT22;16676;51.202;6.774;2024-02-14T14:27:34;18.70;72.20
29775;DHT22;16676;51.202;6.774;2024-02-14T14:31:37;18.80;72.60
29775;DHT22;16676;51.202;6.774;2024-02-14T14:35:39;18.90;72.90
29775;DHT22;16676;51.202;6.774;2024-02-14T14:39:41;19.00;72.70
29775;DHT22;16676;51.202;6.774;2024-02-14T14:43:44;19.10;72.40
29775;DHT22;16676;51.202;6.774;2024-02-14T14:47:51;19.20;72.20
29775;DHT22;16676;51.202;6.774;2024-02-14T14:51:54;19.40;71.80
29775;DHT22;16676;51.202;6.774;2024-02-14T14:55:58;19.50;72.50
29775;DHT22;16676;51.202;6.774;2024-02-14T15:00:00;19.60;71.20
29775;DHT22;16676;51.202;6.774;2024-02-14T15:04:04;19.70;71.20
29775;DHT22;16676;51.202;6.774;2024-02-14T15:08:07;19.70;70.90
29775;DHT22;16676;51.202;6.774;2024-02-14T15:12:09;19.80;70.90
29775;DHT22;16676;51.202;6.774;2024-02-14T15:16:12;19.80;70.90
29775;DHT22;16676;51.202;6.774;2024-02-14T15:20:15;19.90;70.70
29775;DHT22;16676;51.202;6.774;2024-02-14T15:24:17;19.90;70.50
29775;DHT22;16676;51.202;6.774;2024-02-14T15:28:21;19.90;70.60
29775;DHT22;16676;51.202;6.774;2024-02-14T15:32:26;19.90;70.70
29775;DHT22;16676;51.202;6.774;2024-02-14T15:36:47;20.00;70.90
29775;DHT22;16676;51.202;6.774;2024-02-14T15:40:50;20.00;70.60
29775;DHT22;16676;51.202;6.774;2024-02-14T15:44:55;20.00;70.90
29775;DHT22;16676;51.202;6.774;2024-02-14T15:48:57;20.00;70.90
29775;DHT22;16676;51.202;6.774;2024-02-14T15:53:01;20.00;71.20
29775;DHT22;16676;51.202;6.774;2024-02-14T15:57:03;20.00;71.20
29775;DHT22;16676;51.202;6.774;2024-02-14T16:01:05;19.90;71.10
29775;DHT22;16676;51.202;6.774;2024-02-14T16:05:08;20.00;71.20
29775;DHT22;16676;51.202;6.774;2024-02-14T16:09:11;19.90;71.40
29775;DHT22;16676;51.202;6.774;2024-02-14T16:13:13;19.90;71.50
29775;DHT22;16676;51.202;6.774;2024-02-14T16:17:15;19.90;71.50
29775;DHT22;16676;51.202;6.774;2024-02-14T16:21:17;19.90;71.50
29775;DHT22;16676;51.202;6.774;2024-02-14T16:25:20;19.90;71.00
29775;DHT22;16676;51.202;6.774;2024-02-14T16:29:23;19.90;71.80
29775;DHT22;16676;51.202;6.774;2024-02-14T16:33:25;19.90;71.80
29775;DHT22;16676;51.202;6.774;2024-02-14T16:37:28;19.90;71.50
29775;DHT22;16676;51.202;6.774;2024-02-14T16:41:31;19.90;71.90
29775;DHT22;16676;51.202;6.774;2024-02-14T16:45:33;19.90;71.90
29775;DHT22;16676;51.202;6.774;2024-02-14T16:49:35;19.90;72.40
29775;DHT22;16676;51.202;6.774;2024-02-14T16:53:37;19.90;72.60
29775;DHT22;16676;51.202;6.774;2024-02-14T16:57:40;19.80;73.10
29775;DHT22;16676;51.202;6.774;2024-02-14T17:01:42;19.80;72.90
29775;DHT22;16676;51.202;6.774;2024-02-14T17:05:45;19.80;72.30
29775;DHT22;16676;51.202;6.774;2024-02-14T17:09:47;19.80;72.80
29775;DHT22;16676;51.202;6.774;2024-02-14T17:13:50;19.80;72.60
29775;DHT22;16676;51.202;6.774;2024-02-14T17:17:53;19.80;73.40
29775;DHT22;16676;51.202;6.774;2024-02-14T17:21:55;19.80;72.80
29775;DHT22;16676;51.202;6.774;2024-02-14T17:25:57;19.80;72.60
29775;DHT22;16676;51.202;6.774;2024-02-14T17:30:00;19.80;72.50
29775;DHT22;16676;51.202;6.774;2024-02-14T17:34:08;19.80;72.00
29775;DHT22;16676;51.202;6.774;2024-02-14T17:38:10;19.70;71.70
29775;DHT22;16676;51.202;6.774;2024-02-14T17:42:12;19.80;71.80
29775;DHT22;16676;51.202;6.774;2024-02-14T17:46:15;19.70;72.00
29775;DHT22;16676;51.202;6.774;2024-02-14T17:50:17;19.80;71.70
29775;DHT22;16676;51.202;6.774;2024-02-14T17:54:19;19.70;72.20
29775;DHT22;16676;51.202;6.774;2024-02-14T17:58:22;19.70;72.00
29775;DHT22;16676;51.202;6.774;2024-02-14T18:02:25;19.70;72.60
29775;DHT22;16676;51.202;6.774;2024-02-14T18:06:27;19.70;73.40
29775;DHT22;16676;51.202;6.774;2024-02-14T18:10:29;19.70;73.60
29775;DHT22;16676;51.202;6.774;2024-02-14T18:14:31;19.70;73.30
29775;DHT22;16676;51.202;6.774;2024-02-14T18:18:34;19.70;73.10
29775;DHT22;16676;51.202;6.774;2024-02-14T18:22:37;19.60;73.00
29775;DHT22;16676;51.202;6.774;2024-02-14T18:26:39;19.50;74.30
29775;DHT22;16676;51.202;6.774;2024-02-14T18:30:41;19.50;75.20
29775;DHT22;16676;51.202;6.774;2024-02-14T18:34:46;19.40;76.00
29775;DHT22;16676;51.202;6.774;2024-02-14T18:38:50;19.40;77.50
29775;DHT22;16676;51.202;6.774;2024-02-14T18:42:52;19.40;80.30
29775;DHT22;16676;51.202;6.774;2024-02-14T18:46:53;19.40;82.70
29775;DHT22;16676;51.202;6.774;2024-02-14T18:50:57;19.50;84.90
29775;DHT22;16676;51.202;6.774;2024-02-14T18:54:59;19.60;85.90
29775;DHT22;16676;51.202;6.774;2024-02-14T18:59:01;19.60;88.30
29775;DHT22;16676;51.202;6.774;2024-02-14T19:03:03;19.70;89.80
29775;DHT22;16676;51.202;6.774;2024-02-14T19:07:07;19.80;85.80
29775;DHT22;16676;51.202;6.774;2024-02-14T19:11:09;19.80;84.70
29775;DHT22;16676;51.202;6.774;2024-02-14T19:15:11;19.80;82.90
29775;DHT22;16676;51.202;6.774;2024-02-14T19:19:13;19.80;80.30
29775;DHT22;16676;51.202;6.774;2024-02-14T19:23:17;19.70;80.10
29775;DHT22;16676;51.202;6.774;2024-02-14T19:27:19;19.80;79.80
29775;DHT22;16676;51.202;6.774;2024-02-14T19:31:21;19.60;80.10
29775;DHT22;16676;51.202;6.774;2024-02-14T19:35:22;19.60;79.60
29775;DHT22;16676;51.202;6.774;2024-02-14T19:39:26;19.60;79.70
29775;DHT22;16676;51.202;6.774;2024-02-14T19:43:28;19.60;78.80
29775;DHT22;16676;51.202;6.774;2024-02-14T19:47:29;19.60;78.90
29775;DHT22;16676;51.202;6.774;2024-02-14T19:51:31;19.60;78.90
29775;DHT22;16676;51.202;6.774;2024-02-14T19:55:36;19.60;78.50
29775;DHT22;16676;51.202;6.774;2024-02-14T19:59:38;19.50;79.30
29775;DHT22;16676;51.202;6.774;2024-02-14T20:03:40;19.50;78.40
29775;DHT22;16676;51.202;6.774;2024-02-14T20:07:46;19.50;78.80
29775;DHT22;16676;51.202;6.774;2024-02-14T20:11:49;19.50;78.30
29775;DHT22;16676;51.202;6.774;2024-02-14T20:15:51;19.50;78.20
29775;DHT22;16676;51.202;6.774;2024-02-14T20:19:53;19.50;78.30
29775;DHT22;16676;51.202;6.774;2024-02-14T20:23:55;19.50;77.90
29775;DHT22;16676;51.202;6.774;2024-02-14T20:27:59;19.40;78.60
29775;DHT22;16676;51.202;6.774;2024-02-14T20:32:01;19.40;78.60
29775;DHT22;16676;51.202;6.774;2024-02-14T20:36:04;19.40;78.70
29775;DHT22;16676;51.202;6.774;2024-02-14T20:40:08;19.40;78.70
29775;DHT22;16676;51.202;6.774;2024-02-14T20:44:11;19.40;78.40
29775;DHT22;16676;51.202;6.774;2024-02-14T20:48:13;19.30;78.80
29775;DHT22;16676;51.202;6.774;2024-02-14T20:52:15;19.30;79.30
29775;DHT22;16676;51.202;6.774;2024-02-14T20:56:17;19.20;79.60
29775;DHT22;16676;51.202;6.774;2024-02-14T21:00:20;19.40;80.20
29775;DHT22;16676;51.202;6.774;2024-02-14T21:04:23;19.50;80.30
29775;DHT22;16676;51.202;6.774;2024-02-14T21:08:25;19.70;80.30
29775;DHT22;16676;51.202;6.774;2024-02-14T21:12:27;19.80;80.20
29775;DHT22;16676;51.202;6.774;2024-02-14T21:16:30;19.90;79.90
29775;DHT22;16676;51.202;6.774;2024-02-14T21:20:32;20.00;79.30
29775;DHT22;16676;51.202;6.774;2024-02-14T21:24:35;20.10;79.00
29775;DHT22;16676;51.202;6.774;2024-02-14T21:28:38;20.20;78.70
29775;DHT22;16676;51.202;6.774;2024-02-14T21:32:41;20.30;78.30
29775;DHT22;16676;51.202;6.774;2024-02-14T21:36:43;20.40;78.30
29775;DHT22;16676;51.202;6.774;2024-02-14T21:40:46;20.40;77.90
29775;DHT22;16676;51.202;6.774;2024-02-14T21:44:49;20.50;77.60
29775;DHT22;16676;51.202;6.774;2024-02-14T21:48:52;20.50;77.50
29775;DHT22;16676;51.202;6.774;2024-02-14T21:52:56;20.50;77.40
29775;DHT22;16676;51.202;6.774;2024-02-14T21:56:59;20.50;77.40
29775;DHT22;16676;51.202;6.774;2024-02-14T22:01:01;20.60;77.00
29775;DHT22;16676;51.202;6.774;2024-02-14T22:05:04;20.60;77.10
29775;DHT22;16676;51.202;6.774;2024-02-14T22:09:06;20.60;77.00
29775;DHT22;16676;51.202;6.774;2024-02-14T22:13:08;20.60;77.00
29775;DHT22;16676;51.202;6.774;2024-02-14T22:17:10;20.60;77.30
29775;DHT22;16676;51.202;6.774;2024-02-14T22:21:17;20.50;76.90
29775;DHT22;16676;51.202;6.774;2024-02-14T22:25:19;20.60;77.80
29775;DHT22;16676;51.202;6.774;2024-02-14T22:29:21;20.60;77.30
29775;DHT22;16676;51.202;6.774;2024-02-14T22:33:23;20.60;77.40
29775;DHT22;16676;51.202;6.774;2024-02-14T22:37:26;20.50;77.20
29775;DHT22;16676;51.202;6.774;2024-02-14T22:41:28;20.50;77.20
29775;DHT22;16676;51.202;6.774;2024-02-14T22:45:32;20.50;77.40
29775;DHT22;16676;51.202;6.774;2024-02-14T22:49:35;20.50;77.20
29775;DHT22;16676;51.202;6.774;2024-02-14T22:53:38;20.50;77.20
29775;DHT22;16676;51.202;6.774;2024-02-14T22:57:41;20.50;77.30
29775;DHT22;16676;51.202;6.774;2024-02-14T23:01:44;20.50;77.40
29775;DHT22;16676;51.202;6.774;2024-02-14T23:05:46;20.50;77.40
29775;DHT22;16676;51.202;6.774;2024-02-14T23:09:49;20.40;77.30
29775;DHT22;16676;51.202;6.774;2024-02-14T23:13:51;20.40;77.70
29775;DHT22;16676;51.202;6.774;2024-02-14T23:17:53;20.40;77.20
29775;DHT22;16676;51.202;6.774;2024-02-14T23:21:54;20.40;77.10
29775;DHT22;16676;51.202;6.774;2024-02-14T23:25:58;20.40;77.10
29775;DHT22;16676;51.202;6.774;2024-02-14T23:30:01;20.40;77.70
29775;DHT22;16676;51.202;6.774;2024-02-14T23:34:02;20.40;77.10
29775;DHT22;16676;51.202;6.774;2024-02-14T23:38:04;20.40;76.60
29775;DHT22;16676;51.202;6.774;2024-02-14T23:42:09;20.40;76.20
29775;DHT22;16676;51.202;6.774;2024-02-14T23:46:11;20.30;76.00
29775;DHT22;16676;51.202;6.774;2024-02-14T23:50:13;20.30;76.70
29775;DHT22;16676;51.202;6.774;2024-02-14T23:54:17;20.30;76.20
29775;DHT22;16676;51.202;6.774;2024-02-14T23:58:20;20.30;75.90
